sensor_id;sensor_type;location;lat;lon;timestamp;temperature;humidity
25732;DHT22;13585;50.864;4.406;2022-07-31T00:01:39;28.00;46.50
25732;DHT22;13585;50.864;4.406;2022-07-31T00:04:05;28.00;46.50
25732;DHT22;13585;50.864;4.406;2022-07-31T00:06:31;28.00;46.60
25732;DHT22;13585;50.864;4.406;2022-07-31T00:08:57;28.00;46.60
25732;DHT22;13585;50.864;4.406;2022-07-31T00:11:22;28.00;46.60
25732;DHT22;13585;50.864;4.406;2022-07-31T00:13:48;28.00;46.60
25732;DHT22;13585;50.864;4.406;2022-07-31T00:16:13;28.00;46.60
25732;DHT22;13585;50.864;4.406;2022-07-31T00:18:39;28.00;46.70
25732;DHT22;13585;50.864;4.406;2022-07-31T00:21:05;28.00;46.70
25732;DHT22;13585;50.864;4.406;2022-07-31T00:23:30;28.00;46.70
25732;DHT22;13585;50.864;4.406;2022-07-31T00:25:56;28.00;46.80
25732;DHT22;13585;50.864;4.406;2022-07-31T00:28:22;28.00;46.80
25732;DHT22;13585;50.864;4.406;2022-07-31T00:30:48;28.00;46.80
25732;DHT22;13585;50.864;4.406;2022-07-31T00:33:13;27.90;46.80
25732;DHT22;13585;50.864;4.406;2022-07-31T00:35:39;28.00;46.90
25732;DHT22;13585;50.864;4.406;2022-07-31T00:38:05;28.00;46.90
25732;DHT22;13585;50.864;4.406;2022-07-31T00:40:30;28.00;46.90
25732;DHT22;13585;50.864;4.406;2022-07-31T00:42:56;28.00;46.90
25732;DHT22;13585;50.864;4.406;2022-07-31T00:45:22;28.00;46.90
25732;DHT22;13585;50.864;4.406;2022-07-31T00:47:48;28.00;47.00
25732;DHT22;13585;50.864;4.406;2022-07-31T00:50:14;28.00;47.00
25732;DHT22;13585;50.864;4.406;2022-07-31T00:52:39;28.00;47.00
25732;DHT22;13585;50.864;4.406;2022-07-31T00:55:06;28.00;47.10
25732;DHT22;13585;50.864;4.406;2022-07-31T00:57:31;28.00;47.10
25732;DHT22;13585;50.864;4.406;2022-07-31T00:59:57;27.90;47.00
25732;DHT22;13585;50.864;4.406;2022-07-31T01:02:23;28.00;47.20
25732;DHT22;13585;50.864;4.406;2022-07-31T01:04:48;28.00;47.30
25732;DHT22;13585;50.864;4.406;2022-07-31T01:07:14;27.90;47.20
25732;DHT22;13585;50.864;4.406;2022-07-31T01:09:40;28.00;47.30
25732;DHT22;13585;50.864;4.406;2022-07-31T01:12:27;27.90;47.30
25732;DHT22;13585;50.864;4.406;2022-07-31T01:14:56;28.00;47.40
25732;DHT22;13585;50.864;4.406;2022-07-31T01:17:25;28.00;47.50
25732;DHT22;13585;50.864;4.406;2022-07-31T01:19:52;27.90;47.50
25732;DHT22;13585;50.864;4.406;2022-07-31T01:22:54;27.90;47.50
25732;DHT22;13585;50.864;4.406;2022-07-31T01:31:13;27.90;47.60
25732;DHT22;13585;50.864;4.406;2022-07-31T01:33:55;27.90;47.60
25732;DHT22;13585;50.864;4.406;2022-07-31T01:36:25;27.90;47.70
25732;DHT22;13585;50.864;4.406;2022-07-31T01:38:54;27.90;47.90
25732;DHT22;13585;50.864;4.406;2022-07-31T01:41:26;27.90;47.90
25732;DHT22;13585;50.864;4.406;2022-07-31T01:43:55;27.90;47.90
25732;DHT22;13585;50.864;4.406;2022-07-31T01:46:22;27.90;48.00
25732;DHT22;13585;50.864;4.406;2022-07-31T01:48:50;27.90;48.00
25732;DHT22;13585;50.864;4.406;2022-07-31T01:51:17;27.90;48.00
25732;DHT22;13585;50.864;4.406;2022-07-31T01:53:45;27.90;48.20
25732;DHT22;13585;50.864;4.406;2022-07-31T01:56:18;27.90;48.20
25732;DHT22;13585;50.864;4.406;2022-07-31T01:58:44;27.80;48.30
25732;DHT22;13585;50.864;4.406;2022-07-31T02:01:13;27.90;48.30
25732;DHT22;13585;50.864;4.406;2022-07-31T02:03:39;27.90;48.40
25732;DHT22;13585;50.864;4.406;2022-07-31T02:06:05;27.90;48.50
25732;DHT22;13585;50.864;4.406;2022-07-31T02:08:32;27.90;48.60
25732;DHT22;13585;50.864;4.406;2022-07-31T02:10:59;27.90;48.50
25732;DHT22;13585;50.864;4.406;2022-07-31T02:13:26;27.90;48.80
25732;DHT22;13585;50.864;4.406;2022-07-31T02:15:55;27.80;48.70
25732;DHT22;13585;50.864;4.406;2022-07-31T02:18:21;27.90;49.00
25732;DHT22;13585;50.864;4.406;2022-07-31T02:20:49;27.90;49.10
25732;DHT22;13585;50.864;4.406;2022-07-31T02:23:15;27.90;49.10
25732;DHT22;13585;50.864;4.406;2022-07-31T02:25:42;27.80;49.60
25732;DHT22;13585;50.864;4.406;2022-07-31T02:28:13;27.80;49.00
25732;DHT22;13585;50.864;4.406;2022-07-31T02:30:42;27.90;49.00
25732;DHT22;13585;50.864;4.406;2022-07-31T02:33:23;27.90;49.00
25732;DHT22;13585;50.864;4.406;2022-07-31T02:35:52;27.80;49.00
25732;DHT22;13585;50.864;4.406;2022-07-31T02:38:19;27.90;49.00
25732;DHT22;13585;50.864;4.406;2022-07-31T02:40:46;27.90;49.00
25732;DHT22;13585;50.864;4.406;2022-07-31T02:43:12;27.90;49.10
25732;DHT22;13585;50.864;4.406;2022-07-31T02:45:40;27.90;49.10
25732;DHT22;13585;50.864;4.406;2022-07-31T02:48:07;27.90;49.10
25732;DHT22;13585;50.864;4.406;2022-07-31T02:50:34;27.80;49.20
25732;DHT22;13585;50.864;4.406;2022-07-31T02:53:00;27.90;49.20
25732;DHT22;13585;50.864;4.406;2022-07-31T02:55:26;27.80;49.40
25732;DHT22;13585;50.864;4.406;2022-07-31T02:57:52;27.80;49.40
25732;DHT22;13585;50.864;4.406;2022-07-31T03:00:19;27.90;49.40
25732;DHT22;13585;50.864;4.406;2022-07-31T03:02:49;27.90;49.30
25732;DHT22;13585;50.864;4.406;2022-07-31T03:05:15;27.80;49.30
25732;DHT22;13585;50.864;4.406;2022-07-31T03:07:41;27.80;49.90
25732;DHT22;13585;50.864;4.406;2022-07-31T03:10:07;27.90;49.40
25732;DHT22;13585;50.864;4.406;2022-07-31T03:12:36;27.90;49.50
25732;DHT22;13585;50.864;4.406;2022-07-31T03:15:09;27.90;49.50
25732;DHT22;13585;50.864;4.406;2022-07-31T03:17:37;27.90;49.50
25732;DHT22;13585;50.864;4.406;2022-07-31T03:20:05;27.80;49.40
25732;DHT22;13585;50.864;4.406;2022-07-31T03:22:32;27.80;49.50
25732;DHT22;13585;50.864;4.406;2022-07-31T03:24:59;27.90;49.60
25732;DHT22;13585;50.864;4.406;2022-07-31T03:27:25;27.90;49.60
25732;DHT22;13585;50.864;4.406;2022-07-31T03:29:50;27.80;49.60
25732;DHT22;13585;50.864;4.406;2022-07-31T03:32:16;27.80;49.90
25732;DHT22;13585;50.864;4.406;2022-07-31T03:34:42;27.90;50.10
25732;DHT22;13585;50.864;4.406;2022-07-31T03:37:07;27.80;50.00
25732;DHT22;13585;50.864;4.406;2022-07-31T03:39:34;27.90;50.10
25732;DHT22;13585;50.864;4.406;2022-07-31T03:42:01;27.80;50.20
25732;DHT22;13585;50.864;4.406;2022-07-31T03:44:27;27.80;50.40
25732;DHT22;13585;50.864;4.406;2022-07-31T03:46:55;27.80;50.70
25732;DHT22;13585;50.864;4.406;2022-07-31T03:49:22;27.80;50.30
25732;DHT22;13585;50.864;4.406;2022-07-31T03:51:48;27.80;50.20
25732;DHT22;13585;50.864;4.406;2022-07-31T03:54:13;27.80;50.30
25732;DHT22;13585;50.864;4.406;2022-07-31T03:56:43;27.80;50.50
25732;DHT22;13585;50.864;4.406;2022-07-31T03:59:11;27.80;50.50
25732;DHT22;13585;50.864;4.406;2022-07-31T04:01:38;27.80;50.50
25732;DHT22;13585;50.864;4.406;2022-07-31T04:04:03;27.80;50.70
25732;DHT22;13585;50.864;4.406;2022-07-31T04:06:29;27.80;50.70
25732;DHT22;13585;50.864;4.406;2022-07-31T04:08:55;27.80;50.70
25732;DHT22;13585;50.864;4.406;2022-07-31T04:11:20;27.80;50.80
25732;DHT22;13585;50.864;4.406;2022-07-31T04:13:46;27.80;50.90
25732;DHT22;13585;50.864;4.406;2022-07-31T04:16:12;27.80;51.00
25732;DHT22;13585;50.864;4.406;2022-07-31T04:18:38;27.80;51.00
25732;DHT22;13585;50.864;4.406;2022-07-31T04:21:03;27.80;51.10
25732;DHT22;13585;50.864;4.406;2022-07-31T04:23:29;27.80;51.10
25732;DHT22;13585;50.864;4.406;2022-07-31T04:25:55;27.80;51.20
25732;DHT22;13585;50.864;4.406;2022-07-31T04:28:20;27.80;51.20
25732;DHT22;13585;50.864;4.406;2022-07-31T04:30:46;27.80;51.30
25732;DHT22;13585;50.864;4.406;2022-07-31T04:33:12;27.80;51.30
25732;DHT22;13585;50.864;4.406;2022-07-31T04:35:39;27.80;51.40
25732;DHT22;13585;50.864;4.406;2022-07-31T04:38:06;27.80;51.40
25732;DHT22;13585;50.864;4.406;2022-07-31T04:40:32;27.80;51.50
25732;DHT22;13585;50.864;4.406;2022-07-31T04:42:57;27.70;51.30
25732;DHT22;13585;50.864;4.406;2022-07-31T04:45:23;27.80;51.40
25732;DHT22;13585;50.864;4.406;2022-07-31T04:47:48;27.70;51.40
25732;DHT22;13585;50.864;4.406;2022-07-31T04:50:14;27.80;51.50
25732;DHT22;13585;50.864;4.406;2022-07-31T04:52:40;27.80;51.50
25732;DHT22;13585;50.864;4.406;2022-07-31T04:55:06;27.80;51.50
25732;DHT22;13585;50.864;4.406;2022-07-31T04:57:31;27.80;51.60
25732;DHT22;13585;50.864;4.406;2022-07-31T04:59:57;27.70;51.50
25732;DHT22;13585;50.864;4.406;2022-07-31T05:02:23;27.70;51.40
25732;DHT22;13585;50.864;4.406;2022-07-31T05:04:48;27.80;51.50
25732;DHT22;13585;50.864;4.406;2022-07-31T05:07:14;27.70;51.40
25732;DHT22;13585;50.864;4.406;2022-07-31T05:09:39;27.80;51.50
25732;DHT22;13585;50.864;4.406;2022-07-31T05:12:05;27.70;51.50
25732;DHT22;13585;50.864;4.406;2022-07-31T05:14:32;27.80;51.50
25732;DHT22;13585;50.864;4.406;2022-07-31T05:16:58;27.80;51.50
25732;DHT22;13585;50.864;4.406;2022-07-31T05:19:24;27.80;51.50
25732;DHT22;13585;50.864;4.406;2022-07-31T05:21:55;27.80;51.50
25732;DHT22;13585;50.864;4.406;2022-07-31T05:24:22;27.80;51.50
25732;DHT22;13585;50.864;4.406;2022-07-31T05:26:48;27.80;51.60
25732;DHT22;13585;50.864;4.406;2022-07-31T05:29:13;27.80;51.60
25732;DHT22;13585;50.864;4.406;2022-07-31T05:31:40;27.70;51.40
25732;DHT22;13585;50.864;4.406;2022-07-31T05:34:05;27.70;51.40
25732;DHT22;13585;50.864;4.406;2022-07-31T05:36:31;27.80;51.50
25732;DHT22;13585;50.864;4.406;2022-07-31T05:38:56;27.70;51.50
25732;DHT22;13585;50.864;4.406;2022-07-31T05:41:22;27.80;51.60
25732;DHT22;13585;50.864;4.406;2022-07-31T05:43:48;27.80;51.60
25732;DHT22;13585;50.864;4.406;2022-07-31T05:46:14;27.80;51.50
25732;DHT22;13585;50.864;4.406;2022-07-31T05:48:42;27.70;51.40
25732;DHT22;13585;50.864;4.406;2022-07-31T05:51:09;27.80;51.50
25732;DHT22;13585;50.864;4.406;2022-07-31T05:53:36;27.80;51.60
25732;DHT22;13585;50.864;4.406;2022-07-31T05:56:02;27.70;51.40
25732;DHT22;13585;50.864;4.406;2022-07-31T05:58:28;27.80;51.40
25732;DHT22;13585;50.864;4.406;2022-07-31T06:00:54;27.80;51.50
25732;DHT22;13585;50.864;4.406;2022-07-31T06:03:24;27.80;51.50
25732;DHT22;13585;50.864;4.406;2022-07-31T06:05:52;27.80;51.40
25732;DHT22;13585;50.864;4.406;2022-07-31T06:08:18;27.80;51.30
25732;DHT22;13585;50.864;4.406;2022-07-31T06:10:44;27.80;51.40
25732;DHT22;13585;50.864;4.406;2022-07-31T06:13:10;27.80;51.20
25732;DHT22;13585;50.864;4.406;2022-07-31T06:15:36;27.80;51.20
25732;DHT22;13585;50.864;4.406;2022-07-31T06:18:02;27.80;51.20
25732;DHT22;13585;50.864;4.406;2022-07-31T06:20:28;27.80;51.50
25732;DHT22;13585;50.864;4.406;2022-07-31T06:22:54;27.80;51.70
25732;DHT22;13585;50.864;4.406;2022-07-31T06:25:20;27.80;51.70
25732;DHT22;13585;50.864;4.406;2022-07-31T06:27:46;27.70;51.50
25732;DHT22;13585;50.864;4.406;2022-07-31T06:30:12;27.80;51.50
25732;DHT22;13585;50.864;4.406;2022-07-31T06:32:38;27.80;51.50
25732;DHT22;13585;50.864;4.406;2022-07-31T06:35:05;27.80;51.40
25732;DHT22;13585;50.864;4.406;2022-07-31T06:37:30;27.80;51.40
25732;DHT22;13585;50.864;4.406;2022-07-31T06:39:56;27.90;51.40
25732;DHT22;13585;50.864;4.406;2022-07-31T06:42:24;27.80;51.20
25732;DHT22;13585;50.864;4.406;2022-07-31T06:44:50;27.90;51.20
25732;DHT22;13585;50.864;4.406;2022-07-31T06:47:17;27.90;51.10
25732;DHT22;13585;50.864;4.406;2022-07-31T06:49:43;27.90;51.10
25732;DHT22;13585;50.864;4.406;2022-07-31T06:52:09;27.90;51.10
25732;DHT22;13585;50.864;4.406;2022-07-31T06:54:35;27.90;51.00
25732;DHT22;13585;50.864;4.406;2022-07-31T06:57:01;27.90;51.00
25732;DHT22;13585;50.864;4.406;2022-07-31T06:59:26;27.90;51.00
25732;DHT22;13585;50.864;4.406;2022-07-31T07:01:52;27.90;50.90
25732;DHT22;13585;50.864;4.406;2022-07-31T07:04:17;27.90;50.90
25732;DHT22;13585;50.864;4.406;2022-07-31T07:06:43;27.90;51.00
25732;DHT22;13585;50.864;4.406;2022-07-31T07:09:09;27.90;50.90
25732;DHT22;13585;50.864;4.406;2022-07-31T07:11:34;27.90;50.90
25732;DHT22;13585;50.864;4.406;2022-07-31T07:14:00;27.90;50.90
25732;DHT22;13585;50.864;4.406;2022-07-31T07:16:26;27.90;51.00
25732;DHT22;13585;50.864;4.406;2022-07-31T07:18:51;27.90;51.10
25732;DHT22;13585;50.864;4.406;2022-07-31T07:21:17;27.90;51.10
25732;DHT22;13585;50.864;4.406;2022-07-31T07:23:43;27.90;51.10
25732;DHT22;13585;50.864;4.406;2022-07-31T07:26:09;28.00;51.80
25732;DHT22;13585;50.864;4.406;2022-07-31T07:28:35;28.00;51.20
25732;DHT22;13585;50.864;4.406;2022-07-31T07:31:01;28.00;51.20
25732;DHT22;13585;50.864;4.406;2022-07-31T07:33:27;28.00;51.30
25732;DHT22;13585;50.864;4.406;2022-07-31T07:35:53;28.00;51.40
25732;DHT22;13585;50.864;4.406;2022-07-31T07:38:18;28.00;51.40
25732;DHT22;13585;50.864;4.406;2022-07-31T07:40:44;28.00;51.40
25732;DHT22;13585;50.864;4.406;2022-07-31T07:43:10;28.00;51.50
25732;DHT22;13585;50.864;4.406;2022-07-31T07:45:35;28.00;51.50
25732;DHT22;13585;50.864;4.406;2022-07-31T07:48:02;28.00;52.10
25732;DHT22;13585;50.864;4.406;2022-07-31T07:50:27;28.00;51.50
25732;DHT22;13585;50.864;4.406;2022-07-31T07:52:53;28.00;51.50
25732;DHT22;13585;50.864;4.406;2022-07-31T07:55:19;28.00;51.50
25732;DHT22;13585;50.864;4.406;2022-07-31T07:57:44;28.10;51.60
25732;DHT22;13585;50.864;4.406;2022-07-31T08:00:11;28.10;51.60
25732;DHT22;13585;50.864;4.406;2022-07-31T08:02:37;28.10;51.70
25732;DHT22;13585;50.864;4.406;2022-07-31T08:05:04;28.10;51.70
25732;DHT22;13585;50.864;4.406;2022-07-31T08:07:32;28.10;51.80
25732;DHT22;13585;50.864;4.406;2022-07-31T08:09:59;28.10;51.80
25732;DHT22;13585;50.864;4.406;2022-07-31T08:12:26;28.10;51.80
25732;DHT22;13585;50.864;4.406;2022-07-31T08:14:52;28.10;51.90
25732;DHT22;13585;50.864;4.406;2022-07-31T08:17:18;28.10;51.90
25732;DHT22;13585;50.864;4.406;2022-07-31T08:19:44;28.10;51.90
25732;DHT22;13585;50.864;4.406;2022-07-31T08:22:10;28.00;51.90
25732;DHT22;13585;50.864;4.406;2022-07-31T08:24:36;28.10;51.90
25732;DHT22;13585;50.864;4.406;2022-07-31T08:27:01;28.10;52.00
25732;DHT22;13585;50.864;4.406;2022-07-31T08:29:46;28.10;52.00
25732;DHT22;13585;50.864;4.406;2022-07-31T08:32:12;28.20;52.00
25732;DHT22;13585;50.864;4.406;2022-07-31T08:34:38;28.10;52.00
25732;DHT22;13585;50.864;4.406;2022-07-31T08:37:04;28.20;52.10
25732;DHT22;13585;50.864;4.406;2022-07-31T08:39:32;28.10;52.10
25732;DHT22;13585;50.864;4.406;2022-07-31T08:41:57;28.10;52.10
25732;DHT22;13585;50.864;4.406;2022-07-31T08:44:23;28.10;52.70
25732;DHT22;13585;50.864;4.406;2022-07-31T08:46:52;28.10;52.10
25732;DHT22;13585;50.864;4.406;2022-07-31T08:49:22;28.20;52.20
25732;DHT22;13585;50.864;4.406;2022-07-31T08:51:50;28.10;52.20
25732;DHT22;13585;50.864;4.406;2022-07-31T08:54:19;28.10;52.20
25732;DHT22;13585;50.864;4.406;2022-07-31T08:56:45;28.20;52.30
25732;DHT22;13585;50.864;4.406;2022-07-31T08:59:16;28.10;52.30
25732;DHT22;13585;50.864;4.406;2022-07-31T09:01:43;28.20;52.30
25732;DHT22;13585;50.864;4.406;2022-07-31T09:04:09;28.10;52.30
25732;DHT22;13585;50.864;4.406;2022-07-31T09:06:35;28.10;52.40
25732;DHT22;13585;50.864;4.406;2022-07-31T09:09:02;28.20;52.40
25732;DHT22;13585;50.864;4.406;2022-07-31T09:11:28;28.10;52.40
25732;DHT22;13585;50.864;4.406;2022-07-31T09:14:01;28.20;52.40
25732;DHT22;13585;50.864;4.406;2022-07-31T09:16:27;28.10;52.40
25732;DHT22;13585;50.864;4.406;2022-07-31T09:18:58;28.20;52.40
25732;DHT22;13585;50.864;4.406;2022-07-31T09:21:24;28.20;52.40
25732;DHT22;13585;50.864;4.406;2022-07-31T09:23:51;28.20;52.40
25732;DHT22;13585;50.864;4.406;2022-07-31T09:26:19;28.20;52.40
25732;DHT22;13585;50.864;4.406;2022-07-31T09:28:46;28.20;52.50
25732;DHT22;13585;50.864;4.406;2022-07-31T09:31:12;28.20;52.50
25732;DHT22;13585;50.864;4.406;2022-07-31T09:33:44;28.20;52.50
25732;DHT22;13585;50.864;4.406;2022-07-31T09:36:11;28.20;52.50
25732;DHT22;13585;50.864;4.406;2022-07-31T09:38:41;28.20;52.50
25732;DHT22;13585;50.864;4.406;2022-07-31T09:41:16;28.20;52.60
25732;DHT22;13585;50.864;4.406;2022-07-31T09:43:52;28.20;52.60
25732;DHT22;13585;50.864;4.406;2022-07-31T09:46:18;28.20;52.60
25732;DHT22;13585;50.864;4.406;2022-07-31T09:48:50;28.20;52.50
25732;DHT22;13585;50.864;4.406;2022-07-31T09:51:16;28.20;52.60
25732;DHT22;13585;50.864;4.406;2022-07-31T09:53:48;28.20;52.60
25732;DHT22;13585;50.864;4.406;2022-07-31T09:56:35;28.20;52.60
25732;DHT22;13585;50.864;4.406;2022-07-31T09:59:01;28.20;52.60
25732;DHT22;13585;50.864;4.406;2022-07-31T10:01:27;28.30;52.60
25732;DHT22;13585;50.864;4.406;2022-07-31T10:03:55;28.20;52.60
25732;DHT22;13585;50.864;4.406;2022-07-31T10:06:26;28.20;52.60
25732;DHT22;13585;50.864;4.406;2022-07-31T10:08:52;28.30;52.70
25732;DHT22;13585;50.864;4.406;2022-07-31T10:11:21;28.30;52.70
25732;DHT22;13585;50.864;4.406;2022-07-31T10:13:50;28.20;52.60
25732;DHT22;13585;50.864;4.406;2022-07-31T10:16:18;28.20;52.60
25732;DHT22;13585;50.864;4.406;2022-07-31T10:18:50;28.20;52.60
25732;DHT22;13585;50.864;4.406;2022-07-31T10:21:17;28.30;52.70
25732;DHT22;13585;50.864;4.406;2022-07-31T10:23:43;28.30;52.70
25732;DHT22;13585;50.864;4.406;2022-07-31T10:26:09;28.30;52.70
25732;DHT22;13585;50.864;4.406;2022-07-31T10:28:36;28.30;52.70
25732;DHT22;13585;50.864;4.406;2022-07-31T10:31:03;28.30;52.60
25732;DHT22;13585;50.864;4.406;2022-07-31T10:33:29;28.30;52.60
25732;DHT22;13585;50.864;4.406;2022-07-31T10:36:16;28.30;52.60
25732;DHT22;13585;50.864;4.406;2022-07-31T10:38:50;28.20;52.70
25732;DHT22;13585;50.864;4.406;2022-07-31T10:41:25;28.30;52.60
25732;DHT22;13585;50.864;4.406;2022-07-31T10:44:04;28.20;52.50
25732;DHT22;13585;50.864;4.406;2022-07-31T10:46:33;28.30;52.60
25732;DHT22;13585;50.864;4.406;2022-07-31T10:48:59;28.30;52.60
25732;DHT22;13585;50.864;4.406;2022-07-31T10:51:25;28.30;52.60
25732;DHT22;13585;50.864;4.406;2022-07-31T10:53:59;28.30;52.60
25732;DHT22;13585;50.864;4.406;2022-07-31T10:56:26;28.20;52.60
25732;DHT22;13585;50.864;4.406;2022-07-31T10:58:55;28.30;52.60
25732;DHT22;13585;50.864;4.406;2022-07-31T11:01:21;28.30;52.70
25732;DHT22;13585;50.864;4.406;2022-07-31T11:03:53;28.30;52.70
25732;DHT22;13585;50.864;4.406;2022-07-31T11:06:19;28.30;52.80
25732;DHT22;13585;50.864;4.406;2022-07-31T11:08:51;28.30;52.80
25732;DHT22;13585;50.864;4.406;2022-07-31T11:11:17;28.30;52.90
25732;DHT22;13585;50.864;4.406;2022-07-31T11:13:53;28.30;52.80
25732;DHT22;13585;50.864;4.406;2022-07-31T11:16:26;28.30;52.90
25732;DHT22;13585;50.864;4.406;2022-07-31T11:18:56;28.30;52.90
25732;DHT22;13585;50.864;4.406;2022-07-31T11:21:37;28.30;53.00
25732;DHT22;13585;50.864;4.406;2022-07-31T11:24:19;28.30;53.10
25732;DHT22;13585;50.864;4.406;2022-07-31T11:26:53;28.30;53.20
25732;DHT22;13585;50.864;4.406;2022-07-31T11:29:37;28.30;53.20
25732;DHT22;13585;50.864;4.406;2022-07-31T11:34:29;28.30;53.20
25732;DHT22;13585;50.864;4.406;2022-07-31T11:36:55;28.30;53.20
25732;DHT22;13585;50.864;4.406;2022-07-31T11:39:21;28.30;53.20
25732;DHT22;13585;50.864;4.406;2022-07-31T11:41:48;28.30;53.20
25732;DHT22;13585;50.864;4.406;2022-07-31T11:44:22;28.30;53.30
25732;DHT22;13585;50.864;4.406;2022-07-31T11:46:49;28.30;53.30
25732;DHT22;13585;50.864;4.406;2022-07-31T11:49:21;28.30;53.20
25732;DHT22;13585;50.864;4.406;2022-07-31T11:51:48;28.30;53.30
25732;DHT22;13585;50.864;4.406;2022-07-31T11:54:24;28.40;53.30
25732;DHT22;13585;50.864;4.406;2022-07-31T11:56:54;28.30;53.30
25732;DHT22;13585;50.864;4.406;2022-07-31T11:59:37;28.40;53.40
25732;DHT22;13585;50.864;4.406;2022-07-31T12:02:11;28.30;53.40
25732;DHT22;13585;50.864;4.406;2022-07-31T12:04:37;28.30;53.40
25732;DHT22;13585;50.864;4.406;2022-07-31T12:07:08;28.50;53.50
25732;DHT22;13585;50.864;4.406;2022-07-31T12:09:35;28.30;53.40
25732;DHT22;13585;50.864;4.406;2022-07-31T12:12:04;28.40;53.50
25732;DHT22;13585;50.864;4.406;2022-07-31T12:14:33;28.40;53.50
25732;DHT22;13585;50.864;4.406;2022-07-31T12:17:00;28.40;53.50
25732;DHT22;13585;50.864;4.406;2022-07-31T12:19:30;28.40;53.60
25732;DHT22;13585;50.864;4.406;2022-07-31T12:21:57;28.40;53.60
25732;DHT22;13585;50.864;4.406;2022-07-31T12:24:23;28.40;53.60
25732;DHT22;13585;50.864;4.406;2022-07-31T12:26:56;28.40;53.60
25732;DHT22;13585;50.864;4.406;2022-07-31T12:29:35;28.40;53.70
25732;DHT22;13585;50.864;4.406;2022-07-31T12:32:02;28.40;53.70
25732;DHT22;13585;50.864;4.406;2022-07-31T12:36:58;28.40;53.70
25732;DHT22;13585;50.864;4.406;2022-07-31T12:39:24;28.40;53.80
25732;DHT22;13585;50.864;4.406;2022-07-31T12:41:50;28.40;53.80
25732;DHT22;13585;50.864;4.406;2022-07-31T12:44:15;28.40;53.80
25732;DHT22;13585;50.864;4.406;2022-07-31T12:46:41;28.40;53.80
25732;DHT22;13585;50.864;4.406;2022-07-31T12:49:07;28.40;53.90
25732;DHT22;13585;50.864;4.406;2022-07-31T12:51:34;28.40;53.90
25732;DHT22;13585;50.864;4.406;2022-07-31T12:54:02;28.40;53.90
25732;DHT22;13585;50.864;4.406;2022-07-31T12:56:29;28.40;53.90
25732;DHT22;13585;50.864;4.406;2022-07-31T12:58:54;28.40;54.00
25732;DHT22;13585;50.864;4.406;2022-07-31T13:01:20;28.40;54.00
25732;DHT22;13585;50.864;4.406;2022-07-31T13:03:46;28.40;54.00
25732;DHT22;13585;50.864;4.406;2022-07-31T13:06:15;28.40;54.00
25732;DHT22;13585;50.864;4.406;2022-07-31T13:08:41;28.40;54.10
25732;DHT22;13585;50.864;4.406;2022-07-31T13:11:08;28.40;54.10
25732;DHT22;13585;50.864;4.406;2022-07-31T13:13:33;28.50;54.30
25732;DHT22;13585;50.864;4.406;2022-07-31T13:15:59;28.50;54.20
25732;DHT22;13585;50.864;4.406;2022-07-31T13:18:25;28.40;54.20
25732;DHT22;13585;50.864;4.406;2022-07-31T13:20:50;28.40;54.20
25732;DHT22;13585;50.864;4.406;2022-07-31T13:23:16;28.50;54.30
25732;DHT22;13585;50.864;4.406;2022-07-31T13:25:42;28.50;54.40
25732;DHT22;13585;50.864;4.406;2022-07-31T13:28:07;28.50;54.30
25732;DHT22;13585;50.864;4.406;2022-07-31T13:30:33;28.40;54.30
25732;DHT22;13585;50.864;4.406;2022-07-31T13:32:59;28.50;54.30
25732;DHT22;13585;50.864;4.406;2022-07-31T13:35:24;28.40;54.30
25732;DHT22;13585;50.864;4.406;2022-07-31T13:37:51;28.40;54.30
25732;DHT22;13585;50.864;4.406;2022-07-31T13:40:17;28.50;54.30
25732;DHT22;13585;50.864;4.406;2022-07-31T13:42:44;28.40;54.30
25732;DHT22;13585;50.864;4.406;2022-07-31T13:45:10;28.40;54.30
25732;DHT22;13585;50.864;4.406;2022-07-31T13:47:35;28.40;54.30
25732;DHT22;13585;50.864;4.406;2022-07-31T13:50:01;28.40;54.30
25732;DHT22;13585;50.864;4.406;2022-07-31T13:52:27;28.50;54.40
25732;DHT22;13585;50.864;4.406;2022-07-31T13:54:52;28.50;54.40
25732;DHT22;13585;50.864;4.406;2022-07-31T13:57:18;28.40;54.30
25732;DHT22;13585;50.864;4.406;2022-07-31T13:59:44;28.40;54.40
25732;DHT22;13585;50.864;4.406;2022-07-31T14:02:10;28.50;54.40
25732;DHT22;13585;50.864;4.406;2022-07-31T14:04:35;28.50;55.00
25732;DHT22;13585;50.864;4.406;2022-07-31T14:07:01;28.40;54.30
25732;DHT22;13585;50.864;4.406;2022-07-31T14:09:27;28.50;54.40
25732;DHT22;13585;50.864;4.406;2022-07-31T14:11:53;28.50;54.40
25732;DHT22;13585;50.864;4.406;2022-07-31T14:14:21;28.50;54.40
25732;DHT22;13585;50.864;4.406;2022-07-31T14:16:47;28.50;54.40
25732;DHT22;13585;50.864;4.406;2022-07-31T14:19:13;28.50;54.40
25732;DHT22;13585;50.864;4.406;2022-07-31T14:21:38;28.50;54.40
25732;DHT22;13585;50.864;4.406;2022-07-31T14:24:04;28.50;54.40
25732;DHT22;13585;50.864;4.406;2022-07-31T14:26:30;28.50;54.40
25732;DHT22;13585;50.864;4.406;2022-07-31T14:28:55;28.50;54.40
25732;DHT22;13585;50.864;4.406;2022-07-31T14:31:21;28.50;54.40
25732;DHT22;13585;50.864;4.406;2022-07-31T14:33:47;28.50;54.40
25732;DHT22;13585;50.864;4.406;2022-07-31T14:36:13;28.50;54.40
25732;DHT22;13585;50.864;4.406;2022-07-31T14:38:38;28.40;54.30
25732;DHT22;13585;50.864;4.406;2022-07-31T14:41:04;28.40;54.30
25732;DHT22;13585;50.864;4.406;2022-07-31T14:43:31;28.40;54.30
25732;DHT22;13585;50.864;4.406;2022-07-31T14:45:57;28.50;54.40
25732;DHT22;13585;50.864;4.406;2022-07-31T14:48:22;28.50;54.30
25732;DHT22;13585;50.864;4.406;2022-07-31T14:50:48;28.50;54.40
25732;DHT22;13585;50.864;4.406;2022-07-31T14:53:14;28.50;54.30
25732;DHT22;13585;50.864;4.406;2022-07-31T14:55:40;28.50;54.30
25732;DHT22;13585;50.864;4.406;2022-07-31T14:58:06;28.50;54.30
25732;DHT22;13585;50.864;4.406;2022-07-31T15:00:32;28.50;54.30
25732;DHT22;13585;50.864;4.406;2022-07-31T15:02:59;28.50;55.00
25732;DHT22;13585;50.864;4.406;2022-07-31T15:05:24;28.50;54.40
25732;DHT22;13585;50.864;4.406;2022-07-31T15:07:50;28.50;54.40
25732;DHT22;13585;50.864;4.406;2022-07-31T15:10:16;28.50;54.40
25732;DHT22;13585;50.864;4.406;2022-07-31T15:12:41;28.50;54.40
25732;DHT22;13585;50.864;4.406;2022-07-31T15:15:07;28.50;54.40
25732;DHT22;13585;50.864;4.406;2022-07-31T15:17:33;28.50;54.40
25732;DHT22;13585;50.864;4.406;2022-07-31T15:19:59;28.50;54.40
25732;DHT22;13585;50.864;4.406;2022-07-31T15:22:25;28.50;54.30
25732;DHT22;13585;50.864;4.406;2022-07-31T15:24:50;28.50;54.30
25732;DHT22;13585;50.864;4.406;2022-07-31T15:27:17;28.50;54.30
25732;DHT22;13585;50.864;4.406;2022-07-31T15:29:43;28.50;54.20
25732;DHT22;13585;50.864;4.406;2022-07-31T15:32:09;28.50;54.20
25732;DHT22;13585;50.864;4.406;2022-07-31T15:34:34;28.50;54.20
25732;DHT22;13585;50.864;4.406;2022-07-31T15:37:01;28.50;54.10
25732;DHT22;13585;50.864;4.406;2022-07-31T15:39:29;28.50;54.10
25732;DHT22;13585;50.864;4.406;2022-07-31T15:41:55;28.50;54.10